Terminal Aerodrome Forecast
Issued by NWS St Louis, MO

Home | Current Version | Previous Version | Graphics & Text | Print | Product List | Glossary On
Versions: 1 2 3 4 5 6 7 8 9 10 11 12 13 14 15 16 17 18 19 20 21 22 23 24 25
132
FTUS43 KLSX 172331
TAFSTL
TAF
KSTL 172331Z 1800/1906 10010KT P6SM SCT200
     FM180500 11009KT P6SM BKN060
     FM181100 14011G17KT P6SM BKN050
     FM181500 22012G27KT P6SM BKN035
     FM181700 27019G34KT P6SM BKN035
     FM190100 30014G25KT P6SM BKN035=

USA.gov is the U.S. government's official web portal to all federal, state and local government web resources and services.